Etusivu
METAR-TAF:

METAR-TAF

Lentoasemat :

Vidsel, Ruotsi

Leveyspiiri: 65-52N, Pituuspiiri: 020-08E, korkeus merenpinnasta: 180 m

Tämänhetkinen sää

Tämä raportti tehtiin 36 minuuttia sitten, kello 22.50 UTC
Tuuli 2 kn lännestä
Lämpötila -10°C
Kosteus 92%
Ilmanpaine 1036 hPa
Näkyvyys 10 km tai enemmän

METAR: ESPE 202250Z AUTO 28002KT 9999 NCD M10/M11 Q1036

Aika: 00:26 (23:26 UTC)

Sääennuste

Tämä raportti tehtiin 6 tuntia ja 6 minuuttia sitten, kello 17.20 UTC
Ennuste voimassa 20. päivästä klo 18 UTC - 20. päivään klo 21 UTC
Tuuli 2 kn eri suunnista
Näkyvyys 10 km tai enemmän
ei pilviä alle 1500 m:ssä eikä cumulonimbus-pilviä

TAF: ESPE 201720Z 2018/2021 VRB02KT CAVOK RMK MIL

Säähavainnot ja -ennusteet yli 4000 lentoasemalta (METAR- ja TAF-raportit).

Käytössä olevat sääasemat on merkitty karttaan keltaisilla ja punaisilla pisteillä.

Aseta hiiri pisteen päälle nähdäksesi sääaseman nimen.

Klikkaa sitten nähdäksesi säähavainnot ja -ennusteet.

Kartan vaihtaminen: klikkaa mustalla rastilla varustettuja vihreitä pisteitä, niin voit zoomata sisään; viivalla varustettua vihreää pistettä, niin voit zoomata ulos tai vihreitä nuolia, niin pääset viereisille kartoille.


METAR-TAF: